Cormorant, Canada
Current Conditions -  °F | °C
As of 10:00 AM on Thursday 30 Oct 2014 (Local Time) from CYQD Reporting Station
Few Clouds Few Clouds  
Wind Chill: 18°   Ceiling: Unl
Heat Index: 28°   Visibility: 15mi
Dew Point: 19°   Wind: 12mph
Humidity: 69%   Direction: 360°N
Pressure: 30.44"   Gusts: 17mph
Location:  54.23°N, 100.6°W
Report Text: CYQD 301500Z 36010G15KT 15SM FEW023 M02/M07 A3044 RMK SC1 TR SCSLP324
Loading
Personal Weather Stations






























Interactive Weather Map
Tropical Storm Tracking
New forecast layout! Learn more

10-Day Weather Forecast

Advertisements
Track Severe Weather on mobile